sensor_id;sensor_type;location;lat;lon;timestamp;P1;durP1;ratioP1;P2;durP2;ratioP2
35907;SDS011;22003;50.320;8.054;2022-09-27T04:01:54;0.63;;;0.60;;
35907;SDS011;22003;50.320;8.054;2022-09-27T04:04:20;1.45;;;0.90;;
35907;SDS011;22003;50.320;8.054;2022-09-27T04:06:45;5.35;;;1.80;;
35907;SDS011;22003;50.320;8.054;2022-09-27T04:09:10;5.63;;;0.90;;
35907;SDS011;22003;50.320;8.054;2022-09-27T04:11:35;0.47;;;0.40;;
35907;SDS011;22003;50.320;8.054;2022-09-27T04:14:00;0.80;;;0.60;;
35907;SDS011;22003;50.320;8.054;2022-09-27T04:16:26;1.95;;;0.77;;
35907;SDS011;22003;50.320;8.054;2022-09-27T04:18:51;2.17;;;0.60;;
35907;SDS011;22003;50.320;8.054;2022-09-27T04:21:16;0.63;;;0.45;;
35907;SDS011;22003;50.320;8.054;2022-09-27T04:23:42;2.92;;;0.82;;
35907;SDS011;22003;50.320;8.054;2022-09-27T04:26:07;2.35;;;0.75;;
35907;SDS011;22003;50.320;8.054;2022-09-27T04:28:33;0.65;;;0.55;;
35907;SDS011;22003;50.320;8.054;2022-09-27T04:30:58;0.60;;;0.52;;
35907;SDS011;22003;50.320;8.054;2022-09-27T04:33:23;2.25;;;0.50;;
35907;SDS011;22003;50.320;8.054;2022-09-27T04:35:48;2.13;;;0.50;;
35907;SDS011;22003;50.320;8.054;2022-09-27T04:38:33;1.10;;;0.43;;
35907;SDS011;22003;50.320;8.054;2022-09-27T04:40:58;1.90;;;0.82;;
35907;SDS011;22003;50.320;8.054;2022-09-27T04:43:26;2.35;;;0.60;;
35907;SDS011;22003;50.320;8.054;2022-09-27T04:45:51;1.58;;;0.88;;
35907;SDS011;22003;50.320;8.054;2022-09-27T04:48:16;0.90;;;0.50;;
35907;SDS011;22003;50.320;8.054;2022-09-27T04:50:41;0.75;;;0.60;;
35907;SDS011;22003;50.320;8.054;2022-09-27T04:53:07;0.63;;;0.60;;
35907;SDS011;22003;50.320;8.054;2022-09-27T04:55:33;1.42;;;0.60;;
35907;SDS011;22003;50.320;8.054;2022-09-27T04:57:58;0.85;;;0.70;;
35907;SDS011;22003;50.320;8.054;2022-09-27T05:00:25;0.70;;;0.57;;
35907;SDS011;22003;50.320;8.054;2022-09-27T05:02:52;1.07;;;0.60;;
35907;SDS011;22003;50.320;8.054;2022-09-27T05:08:20;0.95;;;0.77;;
35907;SDS011;22003;50.320;8.054;2022-09-27T05:10:46;1.30;;;0.63;;
35907;SDS011;22003;50.320;8.054;2022-09-27T05:13:11;2.70;;;1.20;;
35907;SDS011;22003;50.320;8.054;2022-09-27T05:15:37;2.40;;;1.15;;
35907;SDS011;22003;50.320;8.054;2022-09-27T05:18:03;3.28;;;0.82;;
35907;SDS011;22003;50.320;8.054;2022-09-27T05:20:28;0.70;;;0.60;;
35907;SDS011;22003;50.320;8.054;2022-09-27T05:22:53;1.35;;;1.20;;
35907;SDS011;22003;50.320;8.054;2022-09-27T05:25:19;1.27;;;0.77;;
35907;SDS011;22003;50.320;8.054;2022-09-27T05:27:44;2.22;;;0.70;;
35907;SDS011;22003;50.320;8.054;2022-09-27T05:30:09;1.95;;;0.98;;
35907;SDS011;22003;50.320;8.054;2022-09-27T05:32:35;2.45;;;0.93;;
35907;SDS011;22003;50.320;8.054;2022-09-27T05:35:05;3.20;;;1.30;;
35907;SDS011;22003;50.320;8.054;2022-09-27T05:37:30;1.10;;;1.00;;
35907;SDS011;22003;50.320;8.054;2022-09-27T05:39:58;2.85;;;1.00;;
35907;SDS011;22003;50.320;8.054;2022-09-27T05:42:23;1.13;;;0.82;;
35907;SDS011;22003;50.320;8.054;2022-09-27T05:44:48;0.98;;;0.80;;
35907;SDS011;22003;50.320;8.054;2022-09-27T05:47:13;1.20;;;1.10;;
35907;SDS011;22003;50.320;8.054;2022-09-27T05:49:39;1.05;;;0.85;;
35907;SDS011;22003;50.320;8.054;2022-09-27T05:52:05;1.77;;;1.00;;
35907;SDS011;22003;50.320;8.054;2022-09-27T05:54:31;0.82;;;0.68;;
35907;SDS011;22003;50.320;8.054;2022-09-27T05:56:56;1.33;;;1.05;;
35907;SDS011;22003;50.320;8.054;2022-09-27T05:59:22;3.08;;;0.90;;
35907;SDS011;22003;50.320;8.054;2022-09-27T06:01:48;1.10;;;1.00;;
35907;SDS011;22003;50.320;8.054;2022-09-27T06:04:13;1.98;;;1.25;;
35907;SDS011;22003;50.320;8.054;2022-09-27T06:06:38;2.10;;;1.33;;
35907;SDS011;22003;50.320;8.054;2022-09-27T06:09:03;3.25;;;1.15;;
35907;SDS011;22003;50.320;8.054;2022-09-27T06:11:28;2.10;;;0.82;;
35907;SDS011;22003;50.320;8.054;2022-09-27T06:13:53;5.50;;;1.20;;
35907;SDS011;22003;50.320;8.054;2022-09-27T06:16:19;3.43;;;1.27;;
35907;SDS011;22003;50.320;8.054;2022-09-27T06:18:44;2.40;;;0.52;;
35907;SDS011;22003;50.320;8.054;2022-09-27T06:21:09;1.58;;;0.60;;
35907;SDS011;22003;50.320;8.054;2022-09-27T06:23:34;4.22;;;0.80;;
35907;SDS011;22003;50.320;8.054;2022-09-27T06:26:01;1.20;;;0.65;;
35907;SDS011;22003;50.320;8.054;2022-09-27T06:28:27;2.08;;;0.80;;
35907;SDS011;22003;50.320;8.054;2022-09-27T06:30:52;1.23;;;0.50;;
35907;SDS011;22003;50.320;8.054;2022-09-27T06:33:18;5.33;;;0.70;;
35907;SDS011;22003;50.320;8.054;2022-09-27T06:35:43;0.47;;;0.47;;
35907;SDS011;22003;50.320;8.054;2022-09-27T06:38:10;2.60;;;0.70;;
35907;SDS011;22003;50.320;8.054;2022-09-27T06:40:35;0.90;;;0.70;;
35907;SDS011;22003;50.320;8.054;2022-09-27T06:43:08;2.07;;;0.40;;
35907;SDS011;22003;50.320;8.054;2022-09-27T06:45:34;2.08;;;0.50;;
35907;SDS011;22003;50.320;8.054;2022-09-27T06:48:00;1.25;;;0.55;;
35907;SDS011;22003;50.320;8.054;2022-09-27T06:50:27;1.60;;;0.63;;
35907;SDS011;22003;50.320;8.054;2022-09-27T06:52:52;0.75;;;0.75;;
35907;SDS011;22003;50.320;8.054;2022-09-27T06:55:17;1.63;;;0.70;;
35907;SDS011;22003;50.320;8.054;2022-09-27T06:57:42;0.90;;;0.70;;
35907;SDS011;22003;50.320;8.054;2022-09-27T07:00:27;2.97;;;0.60;;
35907;SDS011;22003;50.320;8.054;2022-09-27T07:02:53;0.40;;;0.40;;
35907;SDS011;22003;50.320;8.054;2022-09-27T07:05:18;0.82;;;0.60;;
35907;SDS011;22003;50.320;8.054;2022-09-27T07:07:44;6.00;;;0.82;;
35907;SDS011;22003;50.320;8.054;2022-09-27T07:10:09;2.15;;;0.70;;
35907;SDS011;22003;50.320;8.054;2022-09-27T07:12:35;1.45;;;0.63;;
35907;SDS011;22003;50.320;8.054;2022-09-27T07:15:00;1.23;;;0.60;;
35907;SDS011;22003;50.320;8.054;2022-09-27T07:17:25;0.63;;;0.52;;
35907;SDS011;22003;50.320;8.054;2022-09-27T07:19:51;2.15;;;0.60;;
35907;SDS011;22003;50.320;8.054;2022-09-27T07:22:17;3.50;;;0.68;;
35907;SDS011;22003;50.320;8.054;2022-09-27T07:24:42;2.42;;;0.90;;
35907;SDS011;22003;50.320;8.054;2022-09-27T07:27:07;1.30;;;0.60;;
35907;SDS011;22003;50.320;8.054;2022-09-27T07:29:32;5.47;;;0.60;;
35907;SDS011;22003;50.320;8.054;2022-09-27T07:31:57;4.10;;;0.55;;
35907;SDS011;22003;50.320;8.054;2022-09-27T07:34:22;1.17;;;0.85;;
35907;SDS011;22003;50.320;8.054;2022-09-27T07:36:47;2.78;;;0.50;;
35907;SDS011;22003;50.320;8.054;2022-09-27T07:39:13;4.30;;;0.82;;
35907;SDS011;22003;50.320;8.054;2022-09-27T07:41:38;2.85;;;0.77;;
35907;SDS011;22003;50.320;8.054;2022-09-27T07:44:04;2.20;;;0.60;;
35907;SDS011;22003;50.320;8.054;2022-09-27T07:46:29;2.00;;;0.68;;
35907;SDS011;22003;50.320;8.054;2022-09-27T07:48:54;1.50;;;0.60;;
35907;SDS011;22003;50.320;8.054;2022-09-27T07:51:20;1.27;;;0.50;;
35907;SDS011;22003;50.320;8.054;2022-09-27T07:53:45;4.15;;;0.73;;
35907;SDS011;22003;50.320;8.054;2022-09-27T07:56:10;2.70;;;0.70;;
35907;SDS011;22003;50.320;8.054;2022-09-27T07:58:35;8.03;;;0.90;;
35907;SDS011;22003;50.320;8.054;2022-09-27T08:01:00;1.85;;;0.80;;
35907;SDS011;22003;50.320;8.054;2022-09-27T08:03:26;2.10;;;0.60;;
35907;SDS011;22003;50.320;8.054;2022-09-27T08:05:52;1.23;;;0.70;;
35907;SDS011;22003;50.320;8.054;2022-09-27T08:08:17;1.80;;;0.85;;
35907;SDS011;22003;50.320;8.054;2022-09-27T08:10:42;1.40;;;0.80;;
35907;SDS011;22003;50.320;8.054;2022-09-27T08:13:11;1.88;;;0.50;;
35907;SDS011;22003;50.320;8.054;2022-09-27T08:15:36;0.98;;;0.68;;
35907;SDS011;22003;50.320;8.054;2022-09-27T08:20:29;0.70;;;0.50;;
35907;SDS011;22003;50.320;8.054;2022-09-27T08:22:54;0.43;;;0.38;;
35907;SDS011;22003;50.320;8.054;2022-09-27T08:25:20;3.22;;;0.50;;
35907;SDS011;22003;50.320;8.054;2022-09-27T08:27:55;0.50;;;0.40;;
35907;SDS011;22003;50.320;8.054;2022-09-27T08:30:21;1.48;;;0.50;;
35907;SDS011;22003;50.320;8.054;2022-09-27T08:32:46;1.73;;;0.60;;
35907;SDS011;22003;50.320;8.054;2022-09-27T08:35:11;1.63;;;0.60;;
35907;SDS011;22003;50.320;8.054;2022-09-27T08:37:39;1.48;;;0.60;;
35907;SDS011;22003;50.320;8.054;2022-09-27T08:40:04;1.35;;;0.68;;
35907;SDS011;22003;50.320;8.054;2022-09-27T08:42:32;1.17;;;0.40;;
35907;SDS011;22003;50.320;8.054;2022-09-27T08:47:26;1.15;;;0.52;;
35907;SDS011;22003;50.320;8.054;2022-09-27T08:52:41;1.13;;;0.40;;
35907;SDS011;22003;50.320;8.054;2022-09-27T08:57:54;0.73;;;0.43;;
35907;SDS011;22003;50.320;8.054;2022-09-27T09:00:20;0.90;;;0.40;;
35907;SDS011;22003;50.320;8.054;2022-09-27T09:02:45;5.25;;;0.63;;
35907;SDS011;22003;50.320;8.054;2022-09-27T09:05:11;1.17;;;0.70;;
35907;SDS011;22003;50.320;8.054;2022-09-27T09:10:17;3.10;;;1.00;;
35907;SDS011;22003;50.320;8.054;2022-09-27T09:13:22;0.70;;;0.60;;
35907;SDS011;22003;50.320;8.054;2022-09-27T09:16:00;1.25;;;0.47;;
35907;SDS011;22003;50.320;8.054;2022-09-27T09:18:38;0.30;;;0.30;;
35907;SDS011;22003;50.320;8.054;2022-09-27T09:21:14;1.63;;;0.60;;
35907;SDS011;22003;50.320;8.054;2022-09-27T09:36:44;0.55;;;0.40;;
35907;SDS011;22003;50.320;8.054;2022-09-27T09:39:15;3.80;;;0.60;;
35907;SDS011;22003;50.320;8.054;2022-09-27T09:41:55;1.40;;;0.82;;
35907;SDS011;22003;50.320;8.054;2022-09-27T09:44:23;1.88;;;0.40;;
35907;SDS011;22003;50.320;8.054;2022-09-27T09:46:50;0.75;;;0.22;;
35907;SDS011;22003;50.320;8.054;2022-09-27T09:49:19;2.50;;;0.38;;
35907;SDS011;22003;50.320;8.054;2022-09-27T09:51:47;0.52;;;0.30;;
35907;SDS011;22003;50.320;8.054;2022-09-27T09:54:26;1.63;;;0.40;;
35907;SDS011;22003;50.320;8.054;2022-09-27T09:57:01;0.98;;;0.40;;
35907;SDS011;22003;50.320;8.054;2022-09-27T09:59:29;3.10;;;0.60;;
35907;SDS011;22003;50.320;8.054;2022-09-27T10:01:57;2.53;;;0.50;;
35907;SDS011;22003;50.320;8.054;2022-09-27T10:04:25;0.88;;;0.35;;
35907;SDS011;22003;50.320;8.054;2022-09-27T10:06:52;2.75;;;0.40;;
35907;SDS011;22003;50.320;8.054;2022-09-27T10:09:23;1.48;;;0.50;;
35907;SDS011;22003;50.320;8.054;2022-09-27T10:11:48;1.80;;;0.57;;
35907;SDS011;22003;50.320;8.054;2022-09-27T10:14:14;0.35;;;0.28;;
35907;SDS011;22003;50.320;8.054;2022-09-27T10:16:40;0.68;;;0.35;;
35907;SDS011;22003;50.320;8.054;2022-09-27T10:19:07;2.97;;;0.63;;
35907;SDS011;22003;50.320;8.054;2022-09-27T10:21:33;0.85;;;0.50;;
35907;SDS011;22003;50.320;8.054;2022-09-27T10:24:09;3.30;;;0.73;;
35907;SDS011;22003;50.320;8.054;2022-09-27T10:26:35;2.25;;;0.60;;
35907;SDS011;22003;50.320;8.054;2022-09-27T10:29:20;1.85;;;0.50;;
35907;SDS011;22003;50.320;8.054;2022-09-27T10:31:46;3.55;;;0.60;;
35907;SDS011;22003;50.320;8.054;2022-09-27T10:36:46;2.10;;;0.50;;
35907;SDS011;22003;50.320;8.054;2022-09-27T10:39:25;3.17;;;0.80;;
35907;SDS011;22003;50.320;8.054;2022-09-27T10:41:52;1.40;;;0.80;;
35907;SDS011;22003;50.320;8.054;2022-09-27T10:46:43;0.77;;;0.40;;
35907;SDS011;22003;50.320;8.054;2022-09-27T10:51:39;0.73;;;0.70;;
35907;SDS011;22003;50.320;8.054;2022-09-27T10:54:04;0.70;;;0.47;;
35907;SDS011;22003;50.320;8.054;2022-09-27T10:56:30;4.68;;;1.20;;
35907;SDS011;22003;50.320;8.054;2022-09-27T10:58:56;0.40;;;0.40;;
35907;SDS011;22003;50.320;8.054;2022-09-27T11:01:24;2.28;;;0.75;;
35907;SDS011;22003;50.320;8.054;2022-09-27T11:03:50;1.70;;;0.43;;
35907;SDS011;22003;50.320;8.054;2022-09-27T11:08:48;0.70;;;0.55;;
35907;SDS011;22003;50.320;8.054;2022-09-27T11:13:40;2.40;;;0.68;;
35907;SDS011;22003;50.320;8.054;2022-09-27T11:16:24;1.20;;;0.47;;
35907;SDS011;22003;50.320;8.054;2022-09-27T11:21:45;1.43;;;0.53;;
35907;SDS011;22003;50.320;8.054;2022-09-27T11:26:59;0.75;;;0.47;;
35907;SDS011;22003;50.320;8.054;2022-09-27T11:29:47;2.42;;;1.25;;
35907;SDS011;22003;50.320;8.054;2022-09-27T11:34:46;6.18;;;1.00;;
35907;SDS011;22003;50.320;8.054;2022-09-27T11:40:22;1.17;;;0.60;;
35907;SDS011;22003;50.320;8.054;2022-09-27T11:43:02;1.95;;;0.73;;
35907;SDS011;22003;50.320;8.054;2022-09-27T11:48:17;1.48;;;0.50;;
35907;SDS011;22003;50.320;8.054;2022-09-27T12:06:41;2.60;;;0.60;;
35907;SDS011;22003;50.320;8.054;2022-09-27T12:09:13;1.65;;;1.00;;
35907;SDS011;22003;50.320;8.054;2022-09-27T12:12:00;1.40;;;1.00;;
35907;SDS011;22003;50.320;8.054;2022-09-27T12:14:40;5.43;;;0.75;;
35907;SDS011;22003;50.320;8.054;2022-09-27T12:17:10;2.42;;;0.47;;
35907;SDS011;22003;50.320;8.054;2022-09-27T12:19:37;0.90;;;0.43;;
35907;SDS011;22003;50.320;8.054;2022-09-27T12:22:04;1.77;;;0.60;;
35907;SDS011;22003;50.320;8.054;2022-09-27T12:24:39;1.27;;;0.50;;
35907;SDS011;22003;50.320;8.054;2022-09-27T12:27:09;0.50;;;0.40;;
35907;SDS011;22003;50.320;8.054;2022-09-27T12:29:38;1.30;;;0.57;;
35907;SDS011;22003;50.320;8.054;2022-09-27T12:32:21;0.68;;;0.45;;
35907;SDS011;22003;50.320;8.054;2022-09-27T12:34:50;3.20;;;0.52;;
35907;SDS011;22003;50.320;8.054;2022-09-27T12:37:19;0.70;;;0.40;;
35907;SDS011;22003;50.320;8.054;2022-09-27T12:39:51;1.63;;;0.52;;
35907;SDS011;22003;50.320;8.054;2022-09-27T12:42:30;1.73;;;0.52;;
35907;SDS011;22003;50.320;8.054;2022-09-27T12:44:57;1.00;;;0.63;;
35907;SDS011;22003;50.320;8.054;2022-09-27T12:47:25;2.30;;;0.90;;
35907;SDS011;22003;50.320;8.054;2022-09-27T12:50:14;1.35;;;0.80;;
35907;SDS011;22003;50.320;8.054;2022-09-27T12:52:48;3.13;;;0.70;;
35907;SDS011;22003;50.320;8.054;2022-09-27T12:57:47;3.33;;;0.65;;
35907;SDS011;22003;50.320;8.054;2022-09-27T13:00:17;0.80;;;0.70;;
35907;SDS011;22003;50.320;8.054;2022-09-27T13:15:24;1.50;;;0.77;;
35907;SDS011;22003;50.320;8.054;2022-09-27T13:17:52;3.40;;;1.00;;
35907;SDS011;22003;50.320;8.054;2022-09-27T13:22:55;4.30;;;0.83;;
35907;SDS011;22003;50.320;8.054;2022-09-27T13:31:07;2.50;;;0.73;;
35907;SDS011;22003;50.320;8.054;2022-09-27T13:33:33;1.45;;;0.85;;
35907;SDS011;22003;50.320;8.054;2022-09-27T13:36:07;1.40;;;0.70;;
35907;SDS011;22003;50.320;8.054;2022-09-27T13:38:50;1.88;;;0.52;;
35907;SDS011;22003;50.320;8.054;2022-09-27T13:41:17;1.10;;;0.60;;
35907;SDS011;22003;50.320;8.054;2022-09-27T13:44:01;0.95;;;0.63;;
35907;SDS011;22003;50.320;8.054;2022-09-27T13:46:29;1.15;;;0.70;;
35907;SDS011;22003;50.320;8.054;2022-09-27T13:48:58;0.52;;;0.50;;
35907;SDS011;22003;50.320;8.054;2022-09-27T13:53:55;1.98;;;0.70;;
35907;SDS011;22003;50.320;8.054;2022-09-27T13:57:19;2.15;;;0.80;;
35907;SDS011;22003;50.320;8.054;2022-09-27T13:59:19;0.95;;;0.60;;
35907;SDS011;22003;50.320;8.054;2022-09-27T14:01:46;1.40;;;0.63;;
35907;SDS011;22003;50.320;8.054;2022-09-27T14:04:27;2.28;;;0.82;;
35907;SDS011;22003;50.320;8.054;2022-09-27T14:06:57;1.55;;;0.60;;
35907;SDS011;22003;50.320;8.054;2022-09-27T14:09:25;2.22;;;0.85;;
35907;SDS011;22003;50.320;8.054;2022-09-27T14:11:52;0.43;;;0.43;;
35907;SDS011;22003;50.320;8.054;2022-09-27T14:16:44;1.77;;;0.80;;
35907;SDS011;22003;50.320;8.054;2022-09-27T14:19:17;0.77;;;0.70;;
35907;SDS011;22003;50.320;8.054;2022-09-27T14:21:43;1.35;;;0.93;;
35907;SDS011;22003;50.320;8.054;2022-09-27T14:24:19;2.30;;;0.73;;
35907;SDS011;22003;50.320;8.054;2022-09-27T14:26:45;0.95;;;0.82;;
35907;SDS011;22003;50.320;8.054;2022-09-27T14:29:17;1.85;;;0.70;;
35907;SDS011;22003;50.320;8.054;2022-09-27T14:31:43;3.50;;;1.85;;
35907;SDS011;22003;50.320;8.054;2022-09-27T14:34:10;6.72;;;1.73;;
35907;SDS011;22003;50.320;8.054;2022-09-27T14:36:36;3.53;;;1.70;;
35907;SDS011;22003;50.320;8.054;2022-09-27T14:39:21;1.52;;;0.60;;
35907;SDS011;22003;50.320;8.054;2022-09-27T14:41:47;3.33;;;1.13;;
35907;SDS011;22003;50.320;8.054;2022-09-27T14:44:16;0.80;;;0.73;;
35907;SDS011;22003;50.320;8.054;2022-09-27T14:46:41;2.33;;;1.48;;
35907;SDS011;22003;50.320;8.054;2022-09-27T14:49:23;0.82;;;0.60;;
35907;SDS011;22003;50.320;8.054;2022-09-27T14:51:55;1.17;;;0.80;;
35907;SDS011;22003;50.320;8.054;2022-09-27T14:54:27;1.20;;;0.52;;
35907;SDS011;22003;50.320;8.054;2022-09-27T14:56:55;0.90;;;0.50;;
35907;SDS011;22003;50.320;8.054;2022-09-27T14:59:24;1.45;;;0.73;;
35907;SDS011;22003;50.320;8.054;2022-09-27T15:01:51;4.82;;;1.13;;
35907;SDS011;22003;50.320;8.054;2022-09-27T15:04:17;2.00;;;1.35;;
35907;SDS011;22003;50.320;8.054;2022-09-27T15:06:43;3.22;;;1.20;;
35907;SDS011;22003;50.320;8.054;2022-09-27T15:09:09;4.28;;;1.73;;
35907;SDS011;22003;50.320;8.054;2022-09-27T15:11:38;1.73;;;1.00;;
35907;SDS011;22003;50.320;8.054;2022-09-27T15:14:03;2.28;;;0.73;;
35907;SDS011;22003;50.320;8.054;2022-09-27T15:16:28;2.20;;;1.10;;
35907;SDS011;22003;50.320;8.054;2022-09-27T15:24:45;0.63;;;0.60;;
35907;SDS011;22003;50.320;8.054;2022-09-27T15:27:23;2.92;;;0.80;;
35907;SDS011;22003;50.320;8.054;2022-09-27T15:32:15;3.50;;;0.70;;
35907;SDS011;22003;50.320;8.054;2022-09-27T15:34:41;0.90;;;0.50;;
35907;SDS011;22003;50.320;8.054;2022-09-27T15:37:09;0.88;;;0.80;;
35907;SDS011;22003;50.320;8.054;2022-09-27T15:39:47;1.42;;;0.57;;
35907;SDS011;22003;50.320;8.054;2022-09-27T15:42:13;1.48;;;0.77;;
35907;SDS011;22003;50.320;8.054;2022-09-27T15:47:36;0.70;;;0.70;;
35907;SDS011;22003;50.320;8.054;2022-09-27T15:49:51;1.10;;;0.70;;
35907;SDS011;22003;50.320;8.054;2022-09-27T15:52:38;2.38;;;0.90;;
35907;SDS011;22003;50.320;8.054;2022-09-27T15:55:02;2.90;;;1.50;;
35907;SDS011;22003;50.320;8.054;2022-09-27T15:57:27;2.80;;;1.10;;
35907;SDS011;22003;50.320;8.054;2022-09-27T15:59:53;3.42;;;1.58;;
35907;SDS011;22003;50.320;8.054;2022-09-27T16:02:18;2.05;;;1.38;;
35907;SDS011;22003;50.320;8.054;2022-09-27T16:04:45;1.25;;;0.90;;
35907;SDS011;22003;50.320;8.054;2022-09-27T16:07:10;1.10;;;0.93;;
35907;SDS011;22003;50.320;8.054;2022-09-27T16:09:35;4.07;;;1.30;;
35907;SDS011;22003;50.320;8.054;2022-09-27T16:12:01;1.60;;;1.10;;
35907;SDS011;22003;50.320;8.054;2022-09-27T16:14:26;3.85;;;1.65;;
35907;SDS011;22003;50.320;8.054;2022-09-27T16:16:52;8.38;;;3.10;;
35907;SDS011;22003;50.320;8.054;2022-09-27T16:19:18;3.35;;;1.90;;
35907;SDS011;22003;50.320;8.054;2022-09-27T16:21:43;3.22;;;2.20;;
35907;SDS011;22003;50.320;8.054;2022-09-27T16:24:09;5.68;;;2.08;;
35907;SDS011;22003;50.320;8.054;2022-09-27T16:26:35;2.40;;;1.70;;
35907;SDS011;22003;50.320;8.054;2022-09-27T16:29:00;1.73;;;1.10;;
35907;SDS011;22003;50.320;8.054;2022-09-27T16:31:25;2.20;;;1.47;;
35907;SDS011;22003;50.320;8.054;2022-09-27T16:33:50;3.13;;;2.17;;
35907;SDS011;22003;50.320;8.054;2022-09-27T16:36:16;2.63;;;2.13;;
35907;SDS011;22003;50.320;8.054;2022-09-27T16:38:47;3.60;;;2.38;;
35907;SDS011;22003;50.320;8.054;2022-09-27T16:41:12;3.28;;;2.75;;
35907;SDS011;22003;50.320;8.054;2022-09-27T16:43:38;2.42;;;2.05;;
35907;SDS011;22003;50.320;8.054;2022-09-27T16:46:06;3.20;;;2.53;;
35907;SDS011;22003;50.320;8.054;2022-09-27T16:48:33;3.00;;;2.10;;
35907;SDS011;22003;50.320;8.054;2022-09-27T16:51:05;6.30;;;1.90;;
35907;SDS011;22003;50.320;8.054;2022-09-27T16:53:49;2.05;;;1.60;;
35907;SDS011;22003;50.320;8.054;2022-09-27T16:56:14;5.20;;;3.00;;
35907;SDS011;22003;50.320;8.054;2022-09-27T16:58:39;6.57;;;3.70;;
35907;SDS011;22003;50.320;8.054;2022-09-27T17:01:04;11.77;;;6.25;;
35907;SDS011;22003;50.320;8.054;2022-09-27T17:03:30;11.55;;;4.45;;
35907;SDS011;22003;50.320;8.054;2022-09-27T17:05:59;3.58;;;2.15;;
35907;SDS011;22003;50.320;8.054;2022-09-27T17:08:24;3.55;;;1.80;;
35907;SDS011;22003;50.320;8.054;2022-09-27T17:10:50;4.25;;;1.90;;
35907;SDS011;22003;50.320;8.054;2022-09-27T17:13:15;2.55;;;2.35;;
35907;SDS011;22003;50.320;8.054;2022-09-27T17:15:40;3.22;;;2.47;;
35907;SDS011;22003;50.320;8.054;2022-09-27T17:18:05;4.95;;;2.88;;
35907;SDS011;22003;50.320;8.054;2022-09-27T17:20:31;9.33;;;5.10;;
35907;SDS011;22003;50.320;8.054;2022-09-27T17:22:57;27.63;;;11.40;;
35907;SDS011;22003;50.320;8.054;2022-09-27T17:25:22;10.45;;;5.35;;
35907;SDS011;22003;50.320;8.054;2022-09-27T17:27:48;4.25;;;2.78;;
35907;SDS011;22003;50.320;8.054;2022-09-27T17:30:13;4.63;;;2.75;;
35907;SDS011;22003;50.320;8.054;2022-09-27T17:32:38;5.22;;;3.78;;
35907;SDS011;22003;50.320;8.054;2022-09-27T17:35:04;4.90;;;4.40;;
35907;SDS011;22003;50.320;8.054;2022-09-27T17:37:30;5.35;;;3.95;;
35907;SDS011;22003;50.320;8.054;2022-09-27T17:39:55;1.95;;;1.75;;
35907;SDS011;22003;50.320;8.054;2022-09-27T17:42:21;4.38;;;1.48;;
35907;SDS011;22003;50.320;8.054;2022-09-27T17:44:48;3.22;;;1.38;;
35907;SDS011;22003;50.320;8.054;2022-09-27T17:47:14;2.92;;;1.30;;
35907;SDS011;22003;50.320;8.054;2022-09-27T17:49:58;3.28;;;2.10;;
35907;SDS011;22003;50.320;8.054;2022-09-27T17:52:41;2.30;;;1.38;;
35907;SDS011;22003;50.320;8.054;2022-09-27T17:55:07;1.67;;;1.27;;
35907;SDS011;22003;50.320;8.054;2022-09-27T17:57:32;2.75;;;1.63;;
35907;SDS011;22003;50.320;8.054;2022-09-27T17:59:57;3.73;;;2.90;;
35907;SDS011;22003;50.320;8.054;2022-09-27T18:02:23;4.18;;;2.90;;
35907;SDS011;22003;50.320;8.054;2022-09-27T18:04:48;2.45;;;2.10;;
35907;SDS011;22003;50.320;8.054;2022-09-27T18:07:13;4.13;;;2.40;;
35907;SDS011;22003;50.320;8.054;2022-09-27T18:09:38;4.50;;;2.27;;
35907;SDS011;22003;50.320;8.054;2022-09-27T18:12:03;7.67;;;3.40;;
35907;SDS011;22003;50.320;8.054;2022-09-27T18:14:29;1.45;;;1.30;;
35907;SDS011;22003;50.320;8.054;2022-09-27T18:16:55;1.52;;;1.40;;
35907;SDS011;22003;50.320;8.054;2022-09-27T18:19:21;2.78;;;2.15;;
35907;SDS011;22003;50.320;8.054;2022-09-27T18:21:46;3.67;;;2.28;;
35907;SDS011;22003;50.320;8.054;2022-09-27T18:24:13;4.32;;;2.10;;
35907;SDS011;22003;50.320;8.054;2022-09-27T18:26:38;3.95;;;2.05;;
35907;SDS011;22003;50.320;8.054;2022-09-27T18:29:05;3.35;;;2.33;;
35907;SDS011;22003;50.320;8.054;2022-09-27T18:31:30;4.72;;;2.78;;
35907;SDS011;22003;50.320;8.054;2022-09-27T18:33:56;8.93;;;4.55;;
35907;SDS011;22003;50.320;8.054;2022-09-27T18:36:22;5.97;;;3.42;;
35907;SDS011;22003;50.320;8.054;2022-09-27T18:39:31;7.70;;;3.13;;
35907;SDS011;22003;50.320;8.054;2022-09-27T18:41:37;5.35;;;2.40;;
35907;SDS011;22003;50.320;8.054;2022-09-27T18:44:03;3.75;;;2.35;;
35907;SDS011;22003;50.320;8.054;2022-09-27T18:46:29;3.60;;;2.28;;
35907;SDS011;22003;50.320;8.054;2022-09-27T18:48:55;5.57;;;2.03;;
35907;SDS011;22003;50.320;8.054;2022-09-27T18:51:21;2.20;;;1.60;;
35907;SDS011;22003;50.320;8.054;2022-09-27T18:53:48;3.42;;;2.40;;
35907;SDS011;22003;50.320;8.054;2022-09-27T18:56:17;5.10;;;2.63;;
35907;SDS011;22003;50.320;8.054;2022-09-27T18:58:43;4.55;;;1.75;;
35907;SDS011;22003;50.320;8.054;2022-09-27T19:01:09;4.60;;;3.03;;
35907;SDS011;22003;50.320;8.054;2022-09-27T19:03:34;4.25;;;2.72;;
35907;SDS011;22003;50.320;8.054;2022-09-27T19:06:00;6.90;;;3.43;;
35907;SDS011;22003;50.320;8.054;2022-09-27T19:08:26;7.38;;;3.97;;
35907;SDS011;22003;50.320;8.054;2022-09-27T19:10:52;6.10;;;3.63;;
35907;SDS011;22003;50.320;8.054;2022-09-27T19:13:17;5.60;;;3.42;;
35907;SDS011;22003;50.320;8.054;2022-09-27T19:15:42;5.13;;;2.88;;
35907;SDS011;22003;50.320;8.054;2022-09-27T19:18:08;3.75;;;2.90;;
35907;SDS011;22003;50.320;8.054;2022-09-27T19:20:33;5.45;;;3.15;;
35907;SDS011;22003;50.320;8.054;2022-09-27T19:22:59;7.75;;;2.85;;
35907;SDS011;22003;50.320;8.054;2022-09-27T19:25:24;2.88;;;2.10;;
35907;SDS011;22003;50.320;8.054;2022-09-27T19:27:49;7.40;;;2.47;;
35907;SDS011;22003;50.320;8.054;2022-09-27T19:30:14;2.92;;;2.10;;
35907;SDS011;22003;50.320;8.054;2022-09-27T19:32:40;2.35;;;1.45;;
35907;SDS011;22003;50.320;8.054;2022-09-27T19:35:05;2.22;;;1.88;;
35907;SDS011;22003;50.320;8.054;2022-09-27T19:37:30;1.75;;;1.65;;
35907;SDS011;22003;50.320;8.054;2022-09-27T19:39:55;4.55;;;2.00;;
35907;SDS011;22003;50.320;8.054;2022-09-27T19:42:21;8.47;;;3.10;;
35907;SDS011;22003;50.320;8.054;2022-09-27T19:44:46;6.20;;;3.47;;
35907;SDS011;22003;50.320;8.054;2022-09-27T19:47:11;4.30;;;3.10;;
35907;SDS011;22003;50.320;8.054;2022-09-27T19:49:36;8.27;;;3.55;;
35907;SDS011;22003;50.320;8.054;2022-09-27T19:52:01;4.35;;;3.20;;
35907;SDS011;22003;50.320;8.054;2022-09-27T19:54:28;6.22;;;2.65;;
35907;SDS011;22003;50.320;8.054;2022-09-27T19:56:53;4.03;;;2.13;;
35907;SDS011;22003;50.320;8.054;2022-09-27T19:59:20;3.70;;;1.90;;
35907;SDS011;22003;50.320;8.054;2022-09-27T20:01:45;3.88;;;2.00;;
35907;SDS011;22003;50.320;8.054;2022-09-27T20:04:11;3.42;;;1.92;;
35907;SDS011;22003;50.320;8.054;2022-09-27T20:06:36;2.42;;;1.83;;
35907;SDS011;22003;50.320;8.054;2022-09-27T20:09:02;3.35;;;2.35;;
35907;SDS011;22003;50.320;8.054;2022-09-27T20:11:27;5.25;;;2.00;;
35907;SDS011;22003;50.320;8.054;2022-09-27T20:13:53;3.38;;;2.03;;
35907;SDS011;22003;50.320;8.054;2022-09-27T20:16:20;2.20;;;1.55;;
35907;SDS011;22003;50.320;8.054;2022-09-27T20:18:49;3.47;;;2.00;;
35907;SDS011;22003;50.320;8.054;2022-09-27T20:21:15;6.85;;;2.20;;
35907;SDS011;22003;50.320;8.054;2022-09-27T20:23:40;4.55;;;1.98;;
35907;SDS011;22003;50.320;8.054;2022-09-27T20:26:06;6.03;;;1.75;;
35907;SDS011;22003;50.320;8.054;2022-09-27T20:28:32;2.95;;;1.95;;
35907;SDS011;22003;50.320;8.054;2022-09-27T20:31:01;3.08;;;2.20;;
35907;SDS011;22003;50.320;8.054;2022-09-27T20:33:27;2.42;;;1.55;;
35907;SDS011;22003;50.320;8.054;2022-09-27T20:36:14;3.03;;;1.83;;
35907;SDS011;22003;50.320;8.054;2022-09-27T20:38:43;2.97;;;2.00;;
35907;SDS011;22003;50.320;8.054;2022-09-27T20:41:09;3.42;;;1.70;;
35907;SDS011;22003;50.320;8.054;2022-09-27T20:43:34;6.65;;;1.83;;